Time;durP1;ratioP1;P1;durP2;ratioP2;P2;SDS_P1;SDS_P2;PMS_P1;PMS_P2;Temp;Humidity;BMP_temperature;BMP_pressure;BME280_temperature;BME280_humidity;BME280_pressure;Samples;Min_cycle;Max_cycle;Signal;HPM_P1;HPM_P2
2022/06/29 00:00:29;;;;;;;5.55;3.88;;;17.20;99.90;;;;;;4895547;29;20048;-78
2022/06/29 00:02:57;;;;;;;5.53;3.65;;;17.20;99.90;;;;;;4895946;29;20048;-79
2022/06/29 00:16:25;;;;;;;6.20;3.53;;;17.10;99.90;;;;;;5102765;23;20067;-77
2022/06/29 00:18:50;;;;;;;6.05;3.88;;;17.00;99.90;;;;;;4897414;29;20048;-77
2022/06/29 00:21:16;;;;;;;3.83;3.35;;;17.00;99.90;;;;;;4899368;29;20548;-77
2022/06/29 00:23:42;;;;;;;3.67;2.83;;;17.00;99.90;;;;;;4899786;29;20055;-77
2022/06/29 00:26:07;;;;;;;4.43;3.38;;;17.00;99.90;;;;;;4898371;29;20056;-77
2022/06/29 00:28:33;;;;;;;4.43;3.28;;;16.90;99.90;;;;;;4899428;29;20107;-78
2022/06/29 00:30:59;;;;;;;5.05;3.45;;;16.90;99.90;;;;;;4899292;29;20063;-78
2022/06/29 00:33:24;;;;;;;5.63;3.10;;;16.90;99.90;;;;;;4899399;29;20064;-78
2022/06/29 00:35:50;;;;;;;3.90;3.30;;;16.90;99.90;;;;;;4899284;29;20382;-78
2022/06/29 00:38:16;;;;;;;4.70;3.15;;;16.90;99.90;;;;;;4899412;29;20041;-77
2022/06/29 00:40:42;;;;;;;4.72;3.38;;;16.90;99.90;;;;;;4899809;29;20053;-78
2022/06/29 00:43:09;;;;;;;4.05;3.08;;;16.80;99.90;;;;;;4899183;29;20052;-77
2022/06/29 00:45:34;;;;;;;4.80;3.65;;;16.80;99.90;;;;;;4898776;29;20096;-78
2022/06/29 00:48:00;;;;;;;4.07;3.20;;;16.80;99.90;;;;;;4913585;29;20052;-79
2022/06/29 00:50:29;;;;;;;4.03;3.63;;;16.80;99.90;;;;;;4898854;29;20104;-77
2022/06/29 00:53:00;;;;;;;4.53;3.60;;;16.80;99.90;;;;;;4899153;29;20059;-78
2022/06/29 00:55:29;;;;;;;4.43;3.47;;;16.80;99.90;;;;;;4898824;29;20576;-78
2022/06/29 00:58:00;;;;;;;4.35;3.58;;;16.80;99.90;;;;;;4898940;29;20040;-78
2022/06/29 01:00:25;;;;;;;3.97;3.35;;;16.80;99.90;;;;;;4898834;29;20123;-78
2022/06/29 01:02:51;;;;;;;3.88;3.28;;;16.80;99.90;;;;;;4898625;29;20144;-78
2022/06/29 01:05:17;;;;;;;5.53;3.28;;;16.80;99.90;;;;;;4898922;29;20057;-78
2022/06/29 01:07:43;;;;;;;6.63;3.47;;;16.80;99.90;;;;;;4898973;29;20045;-78
2022/06/29 01:10:09;;;;;;;4.40;3.50;;;16.80;99.90;;;;;;4913640;29;20052;-78
2022/06/29 01:12:35;;;;;;;4.63;3.50;;;16.70;99.90;;;;;;4913563;29;20044;-78
2022/06/29 01:15:01;;;;;;;5.85;3.85;;;16.80;99.90;;;;;;4898065;29;20053;-78
2022/06/29 01:17:28;;;;;;;6.38;3.45;;;16.70;99.90;;;;;;4898481;29;20080;-78
2022/06/29 01:19:53;;;;;;;4.28;3.67;;;16.70;99.90;;;;;;4898690;29;20120;-78
2022/06/29 01:22:22;;;;;;;4.60;4.20;;;16.70;99.90;;;;;;4898714;29;20580;-78
2022/06/29 01:24:49;;;;;;;4.38;3.22;;;16.70;99.90;;;;;;4898585;29;20056;-78
2022/06/29 01:27:16;;;;;;;5.15;3.88;;;16.70;99.90;;;;;;4898562;29;20091;-78
2022/06/29 01:29:42;;;;;;;4.45;3.80;;;16.70;99.90;;;;;;4898408;29;20053;-79
2022/06/29 01:32:08;;;;;;;5.00;4.20;;;16.60;99.90;;;;;;4897330;29;20045;-78
2022/06/29 01:34:36;;;;;;;4.63;3.95;;;16.60;99.90;;;;;;4898530;29;20485;-78
2022/06/29 01:37:03;;;;;;;4.90;3.58;;;16.60;99.90;;;;;;4898542;29;20409;-78
2022/06/29 01:39:29;;;;;;;5.05;3.85;;;16.60;99.90;;;;;;4898435;29;20419;-78
2022/06/29 01:41:56;;;;;;;4.72;4.22;;;16.60;99.90;;;;;;4898935;29;20053;-79
2022/06/29 01:44:22;;;;;;;5.03;3.97;;;16.60;99.90;;;;;;4898416;29;20049;-78
2022/06/29 01:46:47;;;;;;;6.28;4.40;;;16.60;99.90;;;;;;4897943;29;20055;-78
2022/06/29 01:49:14;;;;;;;4.68;3.78;;;16.60;99.90;;;;;;4898419;29;20059;-78
2022/06/29 01:51:40;;;;;;;9.77;4.88;;;16.60;99.90;;;;;;4898263;29;20516;-78
2022/06/29 01:54:06;;;;;;;5.55;4.80;;;16.60;99.90;;;;;;4898255;29;20049;-78
2022/06/29 01:56:32;;;;;;;6.13;4.90;;;16.50;99.90;;;;;;4898202;29;20041;-79
2022/06/29 01:58:58;;;;;;;5.93;5.32;;;16.50;99.90;;;;;;4896965;29;20405;-78
2022/06/29 02:01:24;;;;;;;6.95;4.75;;;16.50;99.90;;;;;;4898057;29;20048;-78
2022/06/29 02:03:51;;;;;;;5.63;5.10;;;16.50;99.90;;;;;;4898294;29;20049;-78
2022/06/29 02:06:17;;;;;;;6.30;4.97;;;16.40;99.90;;;;;;4897387;29;20445;-78
2022/06/29 02:08:44;;;;;;;7.30;5.78;;;16.40;99.90;;;;;;4898055;29;20052;-78
2022/06/29 02:11:10;;;;;;;6.32;5.70;;;16.40;99.90;;;;;;4898195;29;20446;-78
2022/06/29 02:13:36;;;;;;;6.20;5.38;;;16.40;99.90;;;;;;4912707;29;20100;-79
2022/06/29 02:16:01;;;;;;;7.55;5.75;;;16.40;99.90;;;;;;4897653;29;20063;-79
2022/06/29 02:18:27;;;;;;;6.30;5.70;;;16.40;99.90;;;;;;4898208;29;20062;-79
2022/06/29 02:20:53;;;;;;;9.82;6.50;;;16.40;99.90;;;;;;4898063;29;20053;-78
2022/06/29 02:23:20;;;;;;;6.35;5.15;;;16.30;99.90;;;;;;4912793;29;20501;-78
2022/06/29 02:25:46;;;;;;;7.72;5.88;;;16.30;99.90;;;;;;4897997;29;20099;-78
2022/06/29 02:28:12;;;;;;;6.15;5.63;;;16.30;99.90;;;;;;4897783;29;20048;-78
2022/06/29 02:36:07;;;;;;;6.57;5.88;;;16.30;99.90;;;;;;4897986;29;20494;-79
2022/06/29 02:38:33;;;;;;;6.78;5.55;;;16.30;99.90;;;;;;4897937;29;20399;-78
2022/06/29 02:40:59;;;;;;;5.72;5.30;;;16.30;99.90;;;;;;4898306;29;20052;-78
2022/06/29 02:43:25;;;;;;;6.35;5.75;;;16.30;99.90;;;;;;4901359;29;20056;-78
2022/06/29 02:45:51;;;;;;;8.98;6.18;;;16.20;99.90;;;;;;4900948;29;20052;-78
2022/06/29 02:48:17;;;;;;;5.70;5.25;;;16.20;99.90;;;;;;4901507;29;20477;-78
2022/06/29 02:50:42;;;;;;;6.30;5.70;;;16.20;99.90;;;;;;4916053;29;20139;-78
2022/06/29 02:53:08;;;;;;;7.88;6.35;;;16.20;99.90;;;;;;4901202;29;20049;-78
2022/06/29 02:55:34;;;;;;;7.07;5.95;;;16.20;99.90;;;;;;4900925;29;20087;-77
2022/06/29 02:57:59;;;;;;;6.20;5.40;;;16.20;99.90;;;;;;4900970;29;20048;-78
2022/06/29 03:00:25;;;;;;;6.35;5.53;;;16.30;99.90;;;;;;4900122;29;20056;-78
2022/06/29 03:02:51;;;;;;;8.23;5.97;;;16.30;99.90;;;;;;4900892;29;20045;-77
2022/06/29 03:05:17;;;;;;;6.82;6.13;;;16.30;99.90;;;;;;4884206;29;20379;-78
2022/06/29 03:07:43;;;;;;;6.72;6.05;;;16.30;99.90;;;;;;4900619;29;20133;-78
2022/06/29 03:10:08;;;;;;;6.80;6.13;;;16.30;99.90;;;;;;4900564;29;20143;-78
2022/06/29 03:12:34;;;;;;;7.28;6.38;;;16.30;99.90;;;;;;4900896;29;20057;-78
2022/06/29 03:15:00;;;;;;;7.80;6.85;;;16.30;99.90;;;;;;4900736;29;20451;-78
2022/06/29 03:17:25;;;;;;;7.97;6.65;;;16.20;99.90;;;;;;4899142;29;20052;-78
2022/06/29 03:19:51;;;;;;;6.57;5.97;;;16.20;99.90;;;;;;4900378;29;20486;-78
2022/06/29 03:22:17;;;;;;;7.40;6.63;;;16.20;99.90;;;;;;4900566;29;20131;-77
2022/06/29 03:24:42;;;;;;;7.72;7.00;;;16.20;99.90;;;;;;4900411;29;20044;-78
2022/06/29 03:27:08;;;;;;;9.68;6.22;;;16.20;99.90;;;;;;4914985;29;20108;-78
2022/06/29 03:29:34;;;;;;;8.10;7.30;;;16.20;99.90;;;;;;4900859;29;20131;-78
2022/06/29 03:31:59;;;;;;;8.38;6.80;;;16.20;99.90;;;;;;4900388;29;20382;-78
2022/06/29 03:34:25;;;;;;;8.02;6.88;;;16.20;99.90;;;;;;4915261;29;20048;-78
2022/06/29 03:36:50;;;;;;;7.28;6.55;;;16.10;99.90;;;;;;4900242;29;20060;-78
2022/06/29 03:39:16;;;;;;;7.38;6.63;;;16.10;99.90;;;;;;4900065;29;20571;-77
2022/06/29 03:41:42;;;;;;;7.15;6.55;;;16.10;99.90;;;;;;4883700;29;20049;-78
2022/06/29 03:44:08;;;;;;;9.13;7.40;;;16.10;99.90;;;;;;4900228;29;20494;-77
2022/06/29 03:46:34;;;;;;;8.98;6.88;;;16.10;99.90;;;;;;4914124;29;20408;-77
2022/06/29 03:49:00;;;;;;;8.25;7.45;;;16.10;99.90;;;;;;4898997;29;20121;-78
2022/06/29 03:51:26;;;;;;;11.23;7.15;;;16.10;99.90;;;;;;4900199;29;20413;-78
2022/06/29 03:53:51;;;;;;;7.88;7.07;;;16.10;99.90;;;;;;4898719;29;20504;-77
2022/06/29 03:56:17;;;;;;;7.22;6.53;;;16.10;99.90;;;;;;4899942;29;20400;-78
2022/06/29 03:58:43;;;;;;;7.97;7.18;;;16.10;99.90;;;;;;4899881;29;20051;-78
2022/06/29 04:01:09;;;;;;;9.00;6.68;;;16.20;99.90;;;;;;4900170;29;20056;-78
2022/06/29 04:03:35;;;;;;;7.32;6.63;;;16.20;99.90;;;;;;4899752;29;20048;-78
2022/06/29 04:06:01;;;;;;;7.53;6.80;;;16.20;99.90;;;;;;4899599;29;20097;-78
2022/06/29 04:08:27;;;;;;;7.95;6.30;;;16.20;99.90;;;;;;4913942;29;20048;-77
2022/06/29 04:10:52;;;;;;;7.13;6.40;;;16.20;99.90;;;;;;4899734;29;20048;-78
2022/06/29 04:13:18;;;;;;;8.48;6.50;;;16.30;99.90;;;;;;4899616;29;20135;-77
2022/06/29 04:15:44;;;;;;;6.80;6.20;;;16.30;99.90;;;;;;4913246;29;20067;-78
2022/06/29 04:18:09;;;;;;;9.15;6.75;;;16.30;99.90;;;;;;4899469;29;20140;-79
2022/06/29 04:23:20;;;;;;;6.70;6.10;;;16.40;99.90;;;;;;4899922;29;20060;-78
2022/06/29 04:25:45;;;;;;;7.40;6.75;;;16.40;99.90;;;;;;4898808;29;20060;-78
2022/06/29 04:28:11;;;;;;;7.88;6.80;;;16.30;99.90;;;;;;4898418;29;20116;-78
2022/06/29 04:30:37;;;;;;;6.68;6.18;;;16.40;99.90;;;;;;4898574;29;20056;-78
2022/06/29 04:33:02;;;;;;;6.75;6.20;;;16.40;99.90;;;;;;4899189;29;20091;-78
2022/06/29 04:35:28;;;;;;;6.97;6.28;;;16.40;99.90;;;;;;4899178;29;20071;-78
2022/06/29 04:37:54;;;;;;;9.02;6.30;;;16.50;99.90;;;;;;4899217;29;20505;-77
2022/06/29 04:40:19;;;;;;;7.45;6.75;;;16.50;99.90;;;;;;4899186;29;20410;-78
2022/06/29 04:42:45;;;;;;;7.18;6.47;;;16.50;99.90;;;;;;4899049;29;20135;-78
2022/06/29 04:46:19;;;;;;;6.85;6.25;;;16.60;99.90;;;;;;4898608;29;20052;-76
2022/06/29 04:48:00;;;;;;;6.35;5.55;;;16.60;99.90;;;;;;4898611;29;20111;-78
2022/06/29 04:50:27;;;;;;;7.18;5.80;;;16.70;99.90;;;;;;4898998;29;20059;-77
2022/06/29 04:52:53;;;;;;;6.68;6.07;;;16.70;99.90;;;;;;4898958;29;20060;-77
2022/06/29 04:55:19;;;;;;;6.20;5.68;;;16.80;99.90;;;;;;4913402;29;20048;-78
2022/06/29 04:57:45;;;;;;;7.30;6.25;;;16.80;99.90;;;;;;4898684;29;20048;-79
2022/06/29 05:00:11;;;;;;;8.02;5.78;;;16.80;99.90;;;;;;4898651;29;20055;-78
2022/06/29 05:02:36;;;;;;;8.13;5.82;;;16.80;99.90;;;;;;4898519;29;20140;-78
2022/06/29 05:05:02;;;;;;;6.40;5.78;;;16.80;99.90;;;;;;4882005;29;20135;-78
2022/06/29 05:07:28;;;;;;;7.47;6.20;;;16.90;99.90;;;;;;4898541;29;20036;-79
2022/06/29 05:09:54;;;;;;;6.25;5.70;;;16.90;99.90;;;;;;4898709;29;20051;-79
2022/06/29 05:12:19;;;;;;;6.72;5.65;;;16.90;99.90;;;;;;4898598;29;20048;-79
2022/06/29 05:14:45;;;;;;;7.00;5.93;;;16.90;99.90;;;;;;4897340;29;20053;-78
2022/06/29 05:17:11;;;;;;;6.47;5.88;;;16.90;99.90;;;;;;4896476;29;20489;-77
2022/06/29 05:19:36;;;;;;;6.68;5.82;;;17.00;99.90;;;;;;4898528;29;20087;-78
2022/06/29 05:22:02;;;;;;;6.22;5.63;;;17.00;99.90;;;;;;4897421;29;20048;-78
2022/06/29 05:24:28;;;;;;;6.65;5.57;;;17.00;99.90;;;;;;4898448;29;20048;-79
2022/06/29 05:26:53;;;;;;;6.15;5.53;;;17.00;99.90;;;;;;4898106;29;20045;-78
2022/06/29 05:29:19;;;;;;;7.28;5.60;;;17.10;99.90;;;;;;4897492;29;20070;-78
2022/06/29 05:31:45;;;;;;;6.25;5.25;;;17.10;99.90;;;;;;4912945;29;20056;-79
2022/06/29 05:34:11;;;;;;;6.63;5.63;;;17.10;99.90;;;;;;4898071;29;20075;-78
2022/06/29 05:36:36;;;;;;;6.35;5.38;;;17.10;99.90;;;;;;4898284;29;20059;-78
2022/06/29 05:39:02;;;;;;;6.18;5.57;;;17.20;99.90;;;;;;4898365;29;20048;-78
2022/06/29 05:41:28;;;;;;;7.22;5.50;;;17.20;99.90;;;;;;4898661;29;20060;-79
2022/06/29 05:43:54;;;;;;;6.18;4.95;;;17.30;99.90;;;;;;4881557;29;20409;-78
2022/06/29 05:46:22;;;;;;;6.25;5.28;;;17.30;99.90;;;;;;4897531;29;20128;-78
2022/06/29 05:48:48;;;;;;;5.63;5.13;;;17.30;99.90;;;;;;4898188;29;20052;-78
2022/06/29 05:51:14;;;;;;;7.75;5.22;;;17.40;99.90;;;;;;4897268;29;20104;-78
2022/06/29 05:53:40;;;;;;;5.65;5.10;;;17.40;99.90;;;;;;4898468;29;20045;-79
2022/06/29 05:56:06;;;;;;;5.43;4.80;;;17.40;99.90;;;;;;4898130;29;20507;-78
2022/06/29 05:58:31;;;;;;;5.63;4.90;;;17.50;99.90;;;;;;4898272;29;20049;-78
2022/06/29 06:00:57;;;;;;;5.65;5.18;;;17.50;99.90;;;;;;4897999;29;20060;-78
2022/06/29 06:03:23;;;;;;;4.93;4.53;;;17.50;99.90;;;;;;4912573;29;20055;-78
2022/06/29 06:05:49;;;;;;;4.97;4.55;;;17.50;99.90;;;;;;4898049;29;20056;-78
2022/06/29 06:08:15;;;;;;;5.20;4.72;;;17.60;99.90;;;;;;4897920;29;20037;-78
2022/06/29 06:10:41;;;;;;;4.90;4.45;;;17.60;99.90;;;;;;4898154;29;20414;-78
2022/06/29 06:13:07;;;;;;;6.55;4.57;;;17.60;99.90;;;;;;4898087;29;20044;-78
2022/06/29 06:15:34;;;;;;;6.68;4.72;;;17.70;99.90;;;;;;4896961;29;20490;-78
2022/06/29 06:18:01;;;;;;;5.70;4.63;;;17.70;99.90;;;;;;4902072;29;20059;-78
2022/06/29 06:20:30;;;;;;;5.10;4.00;;;17.80;99.90;;;;;;4901652;29;20056;-78
2022/06/29 06:22:55;;;;;;;4.50;3.92;;;17.80;99.90;;;;;;4901721;29;20049;-78
2022/06/29 06:25:22;;;;;;;4.38;4.00;;;17.80;99.90;;;;;;4900576;29;20602;-79
2022/06/29 06:27:47;;;;;;;4.53;4.13;;;17.90;99.90;;;;;;4901347;29;20497;-79
2022/06/29 06:30:13;;;;;;;4.15;3.75;;;17.90;99.90;;;;;;4901180;29;20081;-78
2022/06/29 06:32:39;;;;;;;3.88;3.50;;;18.00;99.90;;;;;;4901444;29;20489;-78
2022/06/29 06:35:08;;;;;;;3.83;3.42;;;18.10;99.90;;;;;;4901177;29;20576;-78
2022/06/29 06:37:34;;;;;;;3.83;2.88;;;18.10;99.90;;;;;;4901156;29;20553;-78
2022/06/29 06:42:44;;;;;;;3.95;2.50;;;18.20;99.90;;;;;;4901047;29;20060;-78
2022/06/29 06:45:09;;;;;;;3.33;2.90;;;18.30;99.90;;;;;;4900285;29;20060;-78
2022/06/29 06:47:37;;;;;;;3.20;2.72;;;18.40;99.90;;;;;;4899132;29;20044;-79
2022/06/29 06:50:04;;;;;;;5.00;2.45;;;18.50;99.90;;;;;;4901163;29;20048;-78
2022/06/29 06:52:30;;;;;;;4.25;2.72;;;18.50;99.90;;;;;;4900939;29;20064;-79
2022/06/29 06:54:55;;;;;;;3.28;2.58;;;18.60;99.90;;;;;;4915496;29;20049;-79
2022/06/29 06:57:21;;;;;;;2.85;2.10;;;18.70;99.90;;;;;;4884188;29;20053;-78
2022/06/29 06:59:47;;;;;;;2.53;2.03;;;18.70;99.90;;;;;;4900955;29;20052;-79
2022/06/29 07:02:12;;;;;;;4.22;1.75;;;18.80;99.90;;;;;;4883512;29;20123;-78
2022/06/29 07:04:38;;;;;;;5.45;2.33;;;18.80;99.90;;;;;;4896417;29;20543;-79
2022/06/29 07:07:05;;;;;;;3.50;1.67;;;18.90;99.90;;;;;;4899685;29;20056;-79
2022/06/29 07:09:30;;;;;;;2.13;1.60;;;19.00;99.90;;;;;;4900733;29;20135;-79
2022/06/29 07:11:56;;;;;;;3.35;1.70;;;19.10;99.90;;;;;;4914984;29;20131;-78
2022/06/29 07:14:21;;;;;;;5.20;1.73;;;19.20;99.90;;;;;;4899567;29;20048;-79
2022/06/29 07:16:47;;;;;;;2.90;1.63;;;19.20;99.90;;;;;;4900034;29;20056;-69
2022/06/29 07:19:13;;;;;;;3.40;1.60;;;19.30;99.90;;;;;;4900744;29;20068;-69
2022/06/29 07:21:38;;;;;;;3.45;1.45;;;19.40;99.90;;;;;;4900828;29;20063;-70
2022/06/29 07:24:04;;;;;;;2.15;1.40;;;19.50;99.90;;;;;;4900582;29;20468;-68
2022/06/29 07:26:30;;;;;;;3.30;1.42;;;19.60;99.90;;;;;;4900437;29;20048;-70
2022/06/29 07:28:58;;;;;;;2.53;1.30;;;19.60;99.90;;;;;;4900240;29;20160;-69
2022/06/29 07:31:24;;;;;;;3.50;1.15;;;19.70;99.90;;;;;;4900419;29;20478;-70
2022/06/29 07:33:49;;;;;;;3.00;1.40;;;19.70;99.90;;;;;;4881707;29;20056;-68
2022/06/29 07:36:15;;;;;;;1.95;1.27;;;19.90;99.90;;;;;;4881892;29;20053;-69
2022/06/29 07:38:41;;;;;;;2.63;1.10;;;19.90;99.90;;;;;;4881538;29;20052;-68
2022/06/29 07:41:06;;;;;;;4.57;1.10;;;19.90;99.90;;;;;;4881395;29;20053;-70
2022/06/29 07:43:32;;;;;;;3.33;1.10;;;20.00;99.90;;;;;;4880773;29;20161;-69
2022/06/29 07:45:58;;;;;;;1.10;1.00;;;20.10;99.90;;;;;;4881006;29;20493;-69
2022/06/29 07:48:24;;;;;;;5.32;1.13;;;20.20;99.90;;;;;;4881481;29;20513;-69
2022/06/29 07:50:50;;;;;;;2.65;1.10;;;20.30;99.90;;;;;;4880944;29;20065;-69
2022/06/29 07:53:16;;;;;;;1.20;1.00;;;20.30;99.90;;;;;;4881311;29;20049;-69
2022/06/29 07:55:44;;;;;;;1.88;1.45;;;20.40;99.90;;;;;;4880154;29;20053;-70
2022/06/29 07:58:12;;;;;;;2.90;1.30;;;20.50;99.90;;;;;;4881442;29;20051;-69
2022/06/29 08:00:38;;;;;;;1.98;1.10;;;20.60;99.90;;;;;;4881604;29;20104;-68
2022/06/29 08:03:04;;;;;;;4.28;1.20;;;20.60;99.90;;;;;;4880352;29;20123;-68
2022/06/29 08:05:30;;;;;;;2.17;1.05;;;20.70;99.90;;;;;;4881637;29;20060;-68
2022/06/29 08:07:55;;;;;;;2.47;1.10;;;20.80;99.90;;;;;;4880929;29;20139;-69
2022/06/29 08:10:21;;;;;;;1.67;1.10;;;20.80;99.90;;;;;;4880865;29;20045;-68
2022/06/29 08:12:47;;;;;;;4.05;1.20;;;20.90;99.90;;;;;;4884998;29;20385;-70
2022/06/29 08:15:15;;;;;;;3.17;1.13;;;21.00;99.90;;;;;;4889354;29;20135;-69
2022/06/29 08:17:44;;;;;;;5.20;2.58;;;21.10;99.90;;;;;;4890567;29;20048;-69
2022/06/29 08:20:10;;;;;;;1.40;1.23;;;21.20;99.90;;;;;;4894180;29;20049;-68
2022/06/29 08:22:36;;;;;;;1.83;1.10;;;21.20;99.90;;;;;;4892344;29;20045;-68
2022/06/29 08:25:03;;;;;;;2.42;1.10;;;21.30;99.90;;;;;;4895200;29;20743;-72
2022/06/29 08:27:30;;;;;;;1.77;1.25;;;21.40;99.90;;;;;;4891960;29;20181;-75
2022/06/29 08:29:56;;;;;;;2.80;1.63;;;21.40;99.90;;;;;;4894303;29;20084;-70
2022/06/29 08:32:22;;;;;;;1.90;1.42;;;21.40;99.90;;;;;;4892829;29;20108;-69
2022/06/29 08:34:48;;;;;;;2.78;1.40;;;21.50;99.90;;;;;;4882124;29;20048;-72
2022/06/29 08:37:13;;;;;;;1.92;1.20;;;21.50;99.90;;;;;;4884051;29;20420;-68
2022/06/29 08:39:39;;;;;;;2.55;1.08;;;21.60;99.90;;;;;;4885568;29;20052;-74
2022/06/29 08:42:05;;;;;;;2.33;1.50;;;21.60;99.90;;;;;;4900939;29;20498;-68
2022/06/29 08:44:36;;;;;;;3.75;1.27;;;21.70;99.90;;;;;;4889618;29;20080;-68
2022/06/29 08:47:04;;;;;;;2.90;1.20;;;21.80;99.90;;;;;;4884346;29;20063;-69
2022/06/29 08:49:33;;;;;;;1.92;1.10;;;21.90;99.90;;;;;;4886150;29;20056;-69
2022/06/29 08:52:03;;;;;;;2.30;1.30;;;21.90;99.90;;;;;;4891123;29;20654;-72
2022/06/29 08:54:31;;;;;;;1.83;1.50;;;22.00;99.90;;;;;;4890917;29;20143;-69
2022/06/29 08:56:58;;;;;;;2.03;1.17;;;22.00;99.90;;;;;;4885634;29;20136;-71
2022/06/29 08:59:23;;;;;;;1.70;1.13;;;22.10;99.90;;;;;;4883440;29;20091;-73
2022/06/29 09:01:52;;;;;;;3.70;1.83;;;22.20;99.90;;;;;;4889124;29;20087;-68
2022/06/29 09:04:18;;;;;;;2.40;1.38;;;22.30;99.90;;;;;;4888765;29;20087;-69
2022/06/29 09:06:45;;;;;;;2.97;1.27;;;22.30;99.90;;;;;;4889588;29;20087;-70
2022/06/29 09:09:12;;;;;;;2.10;1.20;;;22.40;99.90;;;;;;4889584;29;20135;-69
2022/06/29 09:11:43;;;;;;;1.30;1.10;;;22.40;99.90;;;;;;4890036;29;20124;-69
2022/06/29 09:14:17;;;;;;;1.83;1.23;;;22.40;99.90;;;;;;4888567;29;20060;-72
2022/06/29 09:17:00;;;;;;;3.65;1.20;;;22.50;99.90;;;;;;4889447;29;20104;-70
2022/06/29 09:19:42;;;;;;;2.88;1.20;;;22.50;99.90;;;;;;4901332;29;20044;-69
2022/06/29 09:22:09;;;;;;;2.03;1.10;;;22.60;99.90;;;;;;4883831;29;20651;-69
2022/06/29 09:24:34;;;;;;;4.85;1.95;;;22.60;99.90;;;;;;4885646;29;20546;-70
2022/06/29 09:27:07;;;;;;;3.15;1.40;;;22.60;99.90;;;;;;4883417;29;20044;-68
2022/06/29 09:29:41;;;;;;;2.05;1.10;;;22.60;99.90;;;;;;4896249;29;20147;-69
2022/06/29 09:32:19;;;;;;;1.30;1.20;;;22.70;99.90;;;;;;4879451;29;20052;-72
2022/06/29 09:34:50;;;;;;;1.58;1.40;;;22.80;99.90;;;;;;4882750;29;20067;-75
2022/06/29 09:37:20;;;;;;;3.97;1.20;;;22.80;99.90;;;;;;4882809;29;20116;-72
2022/06/29 09:39:51;;;;;;;1.58;1.00;;;22.90;99.90;;;;;;4881684;29;20466;-70
2022/06/29 09:42:20;;;;;;;2.88;1.50;;;23.00;99.90;;;;;;4881884;29;20080;-69
2022/06/29 09:44:47;;;;;;;3.47;1.30;;;23.00;99.90;;;;;;4883969;29;20148;-69
2022/06/29 09:47:19;;;;;;;1.20;1.10;;;23.10;99.90;;;;;;4883598;29;20051;-71
2022/06/29 09:49:59;;;;;;;2.03;1.20;;;23.10;99.90;;;;;;4885349;29;20409;-69
2022/06/29 09:52:25;;;;;;;1.77;1.40;;;23.20;99.90;;;;;;4888017;29;20064;-74
2022/06/29 09:54:56;;;;;;;2.53;1.45;;;23.20;99.90;;;;;;4891937;29;20076;-69
2022/06/29 09:57:26;;;;;;;1.45;1.20;;;23.30;99.90;;;;;;4890235;29;20485;-71
2022/06/29 10:02:48;;;;;;;2.33;1.13;;;23.50;99.90;;;;;;4888037;29;20127;-69
2022/06/29 10:05:22;;;;;;;2.28;1.20;;;23.50;99.90;;;;;;4885517;29;20059;-72
2022/06/29 10:07:53;;;;;;;2.30;0.98;;;23.60;99.90;;;;;;4888979;29;20044;-72
2022/06/29 10:10:24;;;;;;;1.77;0.90;;;23.60;99.90;;;;;;4894552;29;20245;-69
2022/06/29 10:16:15;;;;;;;1.63;0.88;;;23.70;99.90;;;;;;4887812;29;20068;-75
2022/06/29 10:19:08;;;;;;;1.10;0.90;;;23.90;99.90;;;;;;4902457;29;20072;-69
2022/06/29 10:21:37;;;;;;;1.50;1.00;;;23.90;99.90;;;;;;4889736;29;20112;-72
2022/06/29 10:24:03;;;;;;;3.50;1.00;;;23.90;99.90;;;;;;4889612;29;20139;-69
2022/06/29 10:26:32;;;;;;;1.02;0.90;;;24.00;99.90;;;;;;4891258;29;20135;-69
2022/06/29 10:29:10;;;;;;;7.05;1.10;;;24.00;99.90;;;;;;4888634;29;20052;-70
2022/06/29 10:31:54;;;;;;;1.60;0.93;;;24.10;99.90;;;;;;4886675;29;20869;-69
2022/06/29 10:34:30;;;;;;;1.48;0.80;;;24.10;99.90;;;;;;4878274;29;20048;-68
2022/06/29 10:37:00;;;;;;;1.52;1.00;;;24.10;99.90;;;;;;4892490;29;20060;-68
2022/06/29 10:39:26;;;;;;;1.13;0.80;;;24.20;99.90;;;;;;4900029;29;20100;-68
2022/06/29 10:44:58;;;;;;;1.63;1.52;;;24.30;99.70;;;;;;4890338;29;20071;-68
2022/06/29 10:47:24;;;;;;;2.92;0.98;;;24.40;99.90;;;;;;4889950;29;20155;-69
2022/06/29 10:50:16;;;;;;;2.50;0.98;;;24.40;98.10;;;;;;4893097;29;20525;-68
2022/06/29 10:52:44;;;;;;;1.35;1.00;;;24.40;98.20;;;;;;4890153;29;20067;-68
2022/06/29 10:55:11;;;;;;;1.67;1.02;;;24.50;97.60;;;;;;4889064;29;20588;-71
2022/06/29 10:57:38;;;;;;;2.53;1.00;;;24.60;97.00;;;;;;4890734;29;20509;-70
2022/06/29 11:00:09;;;;;;;2.30;0.93;;;24.60;96.50;;;;;;4891794;29;20052;-71
2022/06/29 11:02:36;;;;;;;2.55;1.00;;;24.70;96.40;;;;;;4886323;29;20045;-69
2022/06/29 11:05:02;;;;;;;1.45;1.10;;;24.80;96.80;;;;;;4892887;29;20076;-68
2022/06/29 11:12:57;;;;;;;1.33;1.10;;;24.80;95.20;;;;;;4887667;29;20550;-72
2022/06/29 11:15:42;;;;;;;2.15;0.90;;;24.80;94.50;;;;;;4884832;29;20055;-68
2022/06/29 11:18:12;;;;;;;2.15;1.02;;;24.70;94.80;;;;;;4889382;29;20190;-70
2022/06/29 11:20:40;;;;;;;1.33;1.00;;;24.70;94.80;;;;;;4887774;29;20062;-73
2022/06/29 11:23:22;;;;;;;1.92;1.27;;;24.60;95.20;;;;;;4886127;29;20053;-68
2022/06/29 11:25:54;;;;;;;1.63;1.00;;;24.60;95.20;;;;;;4887257;29;20059;-68
2022/06/29 11:28:23;;;;;;;2.75;1.33;;;24.60;94.50;;;;;;4889020;29;20063;-74
2022/06/29 11:31:07;;;;;;;2.20;1.10;;;24.50;94.50;;;;;;4888278;29;20044;-68
2022/06/29 11:33:36;;;;;;;1.95;1.20;;;24.50;95.40;;;;;;4887493;29;20143;-68
2022/06/29 11:36:07;;;;;;;1.30;1.00;;;24.50;94.40;;;;;;4888844;29;20075;-67
2022/06/29 11:38:37;;;;;;;1.92;1.10;;;24.50;94.80;;;;;;4890179;29;20401;-70
2022/06/29 11:41:17;;;;;;;2.15;1.08;;;24.50;94.20;;;;;;4889634;29;20116;-67
2022/06/29 11:43:43;;;;;;;1.63;0.90;;;24.50;93.60;;;;;;4887967;29;20040;-67
2022/06/29 11:46:20;;;;;;;1.45;1.00;;;24.60;92.70;;;;;;4888143;29;20509;-67
2022/06/29 11:51:35;;;;;;;1.33;1.23;;;24.60;92.20;;;;;;4888944;29;20057;-67
2022/06/29 11:54:06;;;;;;;1.40;1.30;;;24.60;92.10;;;;;;4890041;29;20123;-67
2022/06/29 11:56:33;;;;;;;2.80;1.20;;;24.70;92.10;;;;;;4888790;29;20044;-68
2022/06/29 11:59:03;;;;;;;2.42;1.48;;;24.80;92.60;;;;;;4890322;29;20494;-67
2022/06/29 12:01:29;;;;;;;1.42;1.33;;;25.00;92.90;;;;;;4889134;29;20065;-66
2022/06/29 12:03:57;;;;;;;2.05;1.40;;;25.10;92.20;;;;;;4890285;29;20080;-69
2022/06/29 12:06:37;;;;;;;2.60;1.65;;;25.20;91.80;;;;;;4890010;29;20112;-67
2022/06/29 12:09:04;;;;;;;12.30;2.20;;;25.20;91.40;;;;;;4888531;29;20048;-67
2022/06/29 12:11:30;;;;;;;2.42;1.77;;;25.20;92.00;;;;;;4890684;29;20052;-67
2022/06/29 12:13:56;;;;;;;1.90;1.80;;;25.30;92.70;;;;;;4889316;29;20134;-67
2022/06/29 12:16:22;;;;;;;1.98;1.73;;;25.40;92.50;;;;;;4889908;29;20149;-68
2022/06/29 12:18:48;;;;;;;2.90;1.98;;;25.50;92.10;;;;;;4888726;29;20129;-68
2022/06/29 12:21:13;;;;;;;2.17;1.90;;;25.50;92.60;;;;;;4890554;29;20048;-68
2022/06/29 12:23:39;;;;;;;1.67;1.58;;;25.50;93.30;;;;;;4890204;29;20052;-67
2022/06/29 12:26:06;;;;;;;2.88;1.80;;;25.50;93.70;;;;;;4888605;29;20060;-68
2022/06/29 12:28:32;;;;;;;1.90;1.80;;;25.50;93.70;;;;;;4890705;29;20370;-67
2022/06/29 12:30:58;;;;;;;2.55;2.35;;;25.50;93.90;;;;;;4888671;29;20045;-67
2022/06/29 12:33:23;;;;;;;2.50;1.95;;;25.50;93.30;;;;;;4888788;29;20047;-67
2022/06/29 12:35:52;;;;;;;2.78;2.58;;;25.60;93.70;;;;;;4890675;29;20048;-67
2022/06/29 12:38:18;;;;;;;3.00;2.40;;;25.60;93.30;;;;;;4889641;29;20041;-67
2022/06/29 12:40:44;;;;;;;2.50;2.30;;;25.60;92.80;;;;;;4888681;29;20111;-67
2022/06/29 12:43:09;;;;;;;3.22;2.60;;;25.70;92.70;;;;;;4890273;29;20078;-67
2022/06/29 12:45:35;;;;;;;4.07;3.25;;;25.60;92.60;;;;;;4888298;29;20518;-70
2022/06/29 12:48:01;;;;;;;2.88;2.58;;;25.60;92.80;;;;;;4889081;29;20100;-67
2022/06/29 12:50:26;;;;;;;3.83;2.58;;;25.50;93.00;;;;;;4890287;29;20048;-69
2022/06/29 12:52:52;;;;;;;3.88;3.00;;;25.50;93.20;;;;;;4887274;29;20048;-67
2022/06/29 12:55:20;;;;;;;3.83;2.67;;;25.50;93.70;;;;;;4889408;29;20045;-67
2022/06/29 12:57:46;;;;;;;3.40;3.10;;;25.50;94.20;;;;;;4885153;29;20053;-67
2022/06/29 13:00:13;;;;;;;3.75;3.33;;;25.50;94.20;;;;;;4880064;29;20508;-68
2022/06/29 13:02:39;;;;;;;4.05;3.00;;;25.50;94.50;;;;;;4880066;29;20049;-67
2022/06/29 13:05:06;;;;;;;3.17;2.78;;;25.50;94.40;;;;;;4880317;29;20049;-67
2022/06/29 13:07:33;;;;;;;3.95;3.53;;;25.50;94.70;;;;;;4880341;29;20434;-66
2022/06/29 13:09:59;;;;;;;3.80;3.45;;;25.50;95.00;;;;;;4880102;29;20061;-67
2022/06/29 13:12:26;;;;;;;4.10;3.72;;;25.60;95.30;;;;;;4879155;29;20131;-66
2022/06/29 13:14:52;;;;;;;3.78;3.08;;;25.50;95.10;;;;;;4879953;29;20045;-67
2022/06/29 13:17:19;;;;;;;4.35;3.60;;;25.60;95.60;;;;;;4879365;29;20061;-67
2022/06/29 13:19:45;;;;;;;4.28;3.85;;;25.60;95.80;;;;;;4880109;29;20111;-67
2022/06/29 13:22:12;;;;;;;3.65;3.30;;;25.70;95.50;;;;;;4886034;29;20437;-67
2022/06/29 13:24:38;;;;;;;3.90;3.50;;;25.80;95.30;;;;;;4886687;29;20056;-67
2022/06/29 13:27:04;;;;;;;3.72;3.08;;;25.80;95.30;;;;;;4888232;29;20397;-67